<?xml version="1.0" encoding="UTF-8" standalone="no" ?>
<gpx xmlns="http://www.topografix.com/GPX/1/1" xmlns:xsi="http://www.w3.org/2001/XMLSchema-instance" xsi:schemaLocation="http://www.topografix.com/GPX/1/1 http://www.topografix.com/GPX/1/1/gpx.xsd" version="1.1" creator="VisuGPX - https://www.visugpx.com">
  <metadata>
    <name>piste bleue </name>
    <desc><![CDATA[Piste bleue pour le TRJV]]></desc>
  </metadata>
  <trk>
    <name><![CDATA[piste bleue _1]]></name>
    <trkseg>
      <trkpt lat="45.60838" lon="6.10227">
        <ele>943</ele>
        <time>2014-02-22T13:39:18Z</time>
      </trkpt>
      <trkpt lat="45.6081" lon="6.10224">
        <ele>945</ele>
        <time>2014-02-22T13:40:02Z</time>
      </trkpt>
      <trkpt lat="45.60808" lon="6.10223">
        <ele>945</ele>
        <time>2014-02-22T13:40:04Z</time>
      </trkpt>
      <trkpt lat="45.60807" lon="6.10222">
        <ele>945</ele>
        <time>2014-02-22T13:40:06Z</time>
      </trkpt>
      <trkpt lat="45.60805" lon="6.10221">
        <ele>945</ele>
        <time>2014-02-22T13:40:08Z</time>
      </trkpt>
      <trkpt lat="45.60803" lon="6.10221">
        <ele>945</ele>
        <time>2014-02-22T13:40:10Z</time>
      </trkpt>
      <trkpt lat="45.60801" lon="6.10221">
        <ele>945</ele>
        <time>2014-02-22T13:40:12Z</time>
      </trkpt>
      <trkpt lat="45.60799" lon="6.10221">
        <ele>945</ele>
        <time>2014-02-22T13:40:14Z</time>
      </trkpt>
      <trkpt lat="45.60798" lon="6.1022">
        <ele>945</ele>
        <time>2014-02-22T13:40:16Z</time>
      </trkpt>
      <trkpt lat="45.60796" lon="6.1022">
        <ele>945</ele>
        <time>2014-02-22T13:40:18Z</time>
      </trkpt>
      <trkpt lat="45.60795" lon="6.1022">
        <ele>945</ele>
        <time>2014-02-22T13:40:20Z</time>
      </trkpt>
      <trkpt lat="45.60793" lon="6.10221">
        <ele>945</ele>
        <time>2014-02-22T13:40:22Z</time>
      </trkpt>
      <trkpt lat="45.60792" lon="6.10221">
        <ele>945</ele>
        <time>2014-02-22T13:40:24Z</time>
      </trkpt>
      <trkpt lat="45.6079" lon="6.10221">
        <ele>945</ele>
        <time>2014-02-22T13:40:26Z</time>
      </trkpt>
      <trkpt lat="45.60789" lon="6.10222">
        <ele>945</ele>
        <time>2014-02-22T13:40:28Z</time>
      </trkpt>
      <trkpt lat="45.60787" lon="6.10223">
        <ele>945</ele>
        <time>2014-02-22T13:40:30Z</time>
      </trkpt>
      <trkpt lat="45.60786" lon="6.10224">
        <ele>945</ele>
        <time>2014-02-22T13:40:32Z</time>
      </trkpt>
      <trkpt lat="45.60785" lon="6.10224">
        <ele>945</ele>
        <time>2014-02-22T13:40:34Z</time>
      </trkpt>
      <trkpt lat="45.60784" lon="6.10225">
        <ele>945</ele>
        <time>2014-02-22T13:40:36Z</time>
      </trkpt>
      <trkpt lat="45.60782" lon="6.10226">
        <ele>945</ele>
        <time>2014-02-22T13:40:39Z</time>
      </trkpt>
      <trkpt lat="45.6078" lon="6.10228">
        <ele>945</ele>
        <time>2014-02-22T13:40:42Z</time>
      </trkpt>
      <trkpt lat="45.60779" lon="6.10229">
        <ele>945</ele>
        <time>2014-02-22T13:40:44Z</time>
      </trkpt>
      <trkpt lat="45.60778" lon="6.10231">
        <ele>945</ele>
        <time>2014-02-22T13:40:47Z</time>
      </trkpt>
      <trkpt lat="45.60776" lon="6.10231">
        <ele>945</ele>
        <time>2014-02-22T13:40:49Z</time>
      </trkpt>
      <trkpt lat="45.60775" lon="6.10232">
        <ele>945</ele>
        <time>2014-02-22T13:40:53Z</time>
      </trkpt>
      <trkpt lat="45.60775" lon="6.10234">
        <ele>945</ele>
        <time>2014-02-22T13:40:55Z</time>
      </trkpt>
      <trkpt lat="45.60774" lon="6.10236">
        <ele>945</ele>
        <time>2014-02-22T13:40:57Z</time>
      </trkpt>
      <trkpt lat="45.60773" lon="6.10236">
        <ele>945</ele>
        <time>2014-02-22T13:41:00Z</time>
      </trkpt>
      <trkpt lat="45.60773" lon="6.10238">
        <ele>945</ele>
        <time>2014-02-22T13:41:03Z</time>
      </trkpt>
      <trkpt lat="45.60772" lon="6.1024">
        <ele>945</ele>
        <time>2014-02-22T13:41:05Z</time>
      </trkpt>
      <trkpt lat="45.60772" lon="6.10241">
        <ele>945</ele>
        <time>2014-02-22T13:41:07Z</time>
      </trkpt>
      <trkpt lat="45.60771" lon="6.10244">
        <ele>945</ele>
        <time>2014-02-22T13:41:09Z</time>
      </trkpt>
      <trkpt lat="45.6077" lon="6.10246">
        <ele>945</ele>
        <time>2014-02-22T13:41:12Z</time>
      </trkpt>
      <trkpt lat="45.60769" lon="6.10248">
        <ele>945</ele>
        <time>2014-02-22T13:41:14Z</time>
      </trkpt>
      <trkpt lat="45.60768" lon="6.10249">
        <ele>945</ele>
        <time>2014-02-22T13:41:16Z</time>
      </trkpt>
      <trkpt lat="45.60767" lon="6.10251">
        <ele>945</ele>
        <time>2014-02-22T13:41:19Z</time>
      </trkpt>
      <trkpt lat="45.60766" lon="6.10252">
        <ele>945</ele>
        <time>2014-02-22T13:41:21Z</time>
      </trkpt>
      <trkpt lat="45.60765" lon="6.10253">
        <ele>945</ele>
        <time>2014-02-22T13:41:23Z</time>
      </trkpt>
      <trkpt lat="45.60764" lon="6.10255">
        <ele>945</ele>
        <time>2014-02-22T13:41:25Z</time>
      </trkpt>
      <trkpt lat="45.60762" lon="6.10257">
        <ele>946</ele>
        <time>2014-02-22T13:41:28Z</time>
      </trkpt>
      <trkpt lat="45.60761" lon="6.10258">
        <ele>946</ele>
        <time>2014-02-22T13:41:30Z</time>
      </trkpt>
      <trkpt lat="45.60759" lon="6.1026">
        <ele>946</ele>
        <time>2014-02-22T13:41:33Z</time>
      </trkpt>
      <trkpt lat="45.60758" lon="6.10262">
        <ele>947</ele>
        <time>2014-02-22T13:41:36Z</time>
      </trkpt>
      <trkpt lat="45.60757" lon="6.10263">
        <ele>947</ele>
        <time>2014-02-22T13:41:40Z</time>
      </trkpt>
      <trkpt lat="45.60756" lon="6.10265">
        <ele>947</ele>
        <time>2014-02-22T13:41:42Z</time>
      </trkpt>
      <trkpt lat="45.60756" lon="6.10267">
        <ele>947</ele>
        <time>2014-02-22T13:41:44Z</time>
      </trkpt>
      <trkpt lat="45.60755" lon="6.10268">
        <ele>947</ele>
        <time>2014-02-22T13:41:46Z</time>
      </trkpt>
      <trkpt lat="45.60754" lon="6.1027">
        <ele>947</ele>
        <time>2014-02-22T13:41:48Z</time>
      </trkpt>
      <trkpt lat="45.60753" lon="6.10272">
        <ele>948</ele>
        <time>2014-02-22T13:41:50Z</time>
      </trkpt>
      <trkpt lat="45.60752" lon="6.10274">
        <ele>948</ele>
        <time>2014-02-22T13:41:52Z</time>
      </trkpt>
      <trkpt lat="45.6075" lon="6.10278">
        <ele>948</ele>
        <time>2014-02-22T13:41:55Z</time>
      </trkpt>
      <trkpt lat="45.60748" lon="6.10278">
        <ele>949</ele>
        <time>2014-02-22T13:41:57Z</time>
      </trkpt>
      <trkpt lat="45.60747" lon="6.10278">
        <ele>949</ele>
        <time>2014-02-22T13:41:59Z</time>
      </trkpt>
      <trkpt lat="45.60745" lon="6.10279">
        <ele>949</ele>
        <time>2014-02-22T13:42:02Z</time>
      </trkpt>
      <trkpt lat="45.60743" lon="6.10279">
        <ele>949</ele>
        <time>2014-02-22T13:42:05Z</time>
      </trkpt>
      <trkpt lat="45.60742" lon="6.1028">
        <ele>950</ele>
        <time>2014-02-22T13:42:07Z</time>
      </trkpt>
      <trkpt lat="45.60741" lon="6.1028">
        <ele>951</ele>
        <time>2014-02-22T13:42:09Z</time>
      </trkpt>
      <trkpt lat="45.60744" lon="6.1028">
        <ele>953</ele>
        <time>2014-02-22T13:42:13Z</time>
      </trkpt>
      <trkpt lat="45.60744" lon="6.10279">
        <ele>954</ele>
        <time>2014-02-22T13:42:22Z</time>
      </trkpt>
      <trkpt lat="45.60743" lon="6.10282">
        <ele>955</ele>
        <time>2014-02-22T13:42:24Z</time>
      </trkpt>
      <trkpt lat="45.60741" lon="6.10283">
        <ele>957</ele>
        <time>2014-02-22T13:42:26Z</time>
      </trkpt>
      <trkpt lat="45.60741" lon="6.10285">
        <ele>959</ele>
        <time>2014-02-22T13:42:28Z</time>
      </trkpt>
      <trkpt lat="45.6074" lon="6.10286">
        <ele>961</ele>
        <time>2014-02-22T13:42:31Z</time>
      </trkpt>
      <trkpt lat="45.6074" lon="6.10289">
        <ele>963</ele>
        <time>2014-02-22T13:42:34Z</time>
      </trkpt>
      <trkpt lat="45.60739" lon="6.1029">
        <ele>964</ele>
        <time>2014-02-22T13:42:36Z</time>
      </trkpt>
      <trkpt lat="45.60738" lon="6.10292">
        <ele>966</ele>
        <time>2014-02-22T13:42:38Z</time>
      </trkpt>
      <trkpt lat="45.60738" lon="6.10294">
        <ele>966</ele>
        <time>2014-02-22T13:42:40Z</time>
      </trkpt>
      <trkpt lat="45.60738" lon="6.10296">
        <ele>967</ele>
        <time>2014-02-22T13:42:42Z</time>
      </trkpt>
      <trkpt lat="45.60737" lon="6.103">
        <ele>967</ele>
        <time>2014-02-22T13:42:44Z</time>
      </trkpt>
      <trkpt lat="45.60735" lon="6.10304">
        <ele>968</ele>
        <time>2014-02-22T13:42:47Z</time>
      </trkpt>
      <trkpt lat="45.60733" lon="6.10309">
        <ele>969</ele>
        <time>2014-02-22T13:42:50Z</time>
      </trkpt>
      <trkpt lat="45.60733" lon="6.10311">
        <ele>970</ele>
        <time>2014-02-22T13:42:52Z</time>
      </trkpt>
      <trkpt lat="45.60732" lon="6.10314">
        <ele>970</ele>
        <time>2014-02-22T13:42:54Z</time>
      </trkpt>
      <trkpt lat="45.6073" lon="6.10318">
        <ele>970</ele>
        <time>2014-02-22T13:42:56Z</time>
      </trkpt>
      <trkpt lat="45.6073" lon="6.10321">
        <ele>971</ele>
        <time>2014-02-22T13:42:58Z</time>
      </trkpt>
      <trkpt lat="45.60729" lon="6.10323">
        <ele>972</ele>
        <time>2014-02-22T13:43:00Z</time>
      </trkpt>
      <trkpt lat="45.60729" lon="6.10325">
        <ele>974</ele>
        <time>2014-02-22T13:43:02Z</time>
      </trkpt>
      <trkpt lat="45.6073" lon="6.10327">
        <ele>974</ele>
        <time>2014-02-22T13:43:04Z</time>
      </trkpt>
      <trkpt lat="45.6073" lon="6.10331">
        <ele>975</ele>
        <time>2014-02-22T13:43:06Z</time>
      </trkpt>
      <trkpt lat="45.6073" lon="6.10332">
        <ele>975</ele>
        <time>2014-02-22T13:43:08Z</time>
      </trkpt>
      <trkpt lat="45.6073" lon="6.10334">
        <ele>975</ele>
        <time>2014-02-22T13:43:10Z</time>
      </trkpt>
      <trkpt lat="45.60728" lon="6.10335">
        <ele>975</ele>
        <time>2014-02-22T13:43:14Z</time>
      </trkpt>
      <trkpt lat="45.60727" lon="6.10347">
        <ele>975</ele>
        <time>2014-02-22T13:43:17Z</time>
      </trkpt>
      <trkpt lat="45.60726" lon="6.1035">
        <ele>975</ele>
        <time>2014-02-22T13:43:19Z</time>
      </trkpt>
      <trkpt lat="45.60726" lon="6.10354">
        <ele>975</ele>
        <time>2014-02-22T13:43:21Z</time>
      </trkpt>
      <trkpt lat="45.60725" lon="6.10357">
        <ele>975</ele>
        <time>2014-02-22T13:43:24Z</time>
      </trkpt>
      <trkpt lat="45.60723" lon="6.10358">
        <ele>975</ele>
        <time>2014-02-22T13:43:26Z</time>
      </trkpt>
      <trkpt lat="45.60722" lon="6.10361">
        <ele>975</ele>
        <time>2014-02-22T13:43:32Z</time>
      </trkpt>
      <trkpt lat="45.60723" lon="6.10363">
        <ele>975</ele>
        <time>2014-02-22T13:43:34Z</time>
      </trkpt>
      <trkpt lat="45.60724" lon="6.10368">
        <ele>975</ele>
        <time>2014-02-22T13:43:37Z</time>
      </trkpt>
      <trkpt lat="45.60723" lon="6.10371">
        <ele>977</ele>
        <time>2014-02-22T13:43:39Z</time>
      </trkpt>
      <trkpt lat="45.6072" lon="6.10375">
        <ele>978</ele>
        <time>2014-02-22T13:43:42Z</time>
      </trkpt>
      <trkpt lat="45.60719" lon="6.10379">
        <ele>978</ele>
        <time>2014-02-22T13:43:45Z</time>
      </trkpt>
      <trkpt lat="45.60717" lon="6.10382">
        <ele>978</ele>
        <time>2014-02-22T13:43:48Z</time>
      </trkpt>
      <trkpt lat="45.60716" lon="6.10384">
        <ele>978</ele>
        <time>2014-02-22T13:43:51Z</time>
      </trkpt>
      <trkpt lat="45.60716" lon="6.10386">
        <ele>978</ele>
        <time>2014-02-22T13:43:53Z</time>
      </trkpt>
      <trkpt lat="45.60716" lon="6.10388">
        <ele>978</ele>
        <time>2014-02-22T13:43:55Z</time>
      </trkpt>
      <trkpt lat="45.60716" lon="6.10389">
        <ele>978</ele>
        <time>2014-02-22T13:43:57Z</time>
      </trkpt>
      <trkpt lat="45.60716" lon="6.10391">
        <ele>978</ele>
        <time>2014-02-22T13:43:59Z</time>
      </trkpt>
      <trkpt lat="45.60716" lon="6.10393">
        <ele>978</ele>
        <time>2014-02-22T13:44:01Z</time>
      </trkpt>
      <trkpt lat="45.60714" lon="6.10394">
        <ele>978</ele>
        <time>2014-02-22T13:44:03Z</time>
      </trkpt>
      <trkpt lat="45.60712" lon="6.10394">
        <ele>978</ele>
        <time>2014-02-22T13:44:05Z</time>
      </trkpt>
      <trkpt lat="45.60709" lon="6.10395">
        <ele>978</ele>
        <time>2014-02-22T13:44:09Z</time>
      </trkpt>
      <trkpt lat="45.60709" lon="6.10397">
        <ele>978</ele>
        <time>2014-02-22T13:44:11Z</time>
      </trkpt>
      <trkpt lat="45.60709" lon="6.10399">
        <ele>978</ele>
        <time>2014-02-22T13:44:13Z</time>
      </trkpt>
      <trkpt lat="45.60708" lon="6.104">
        <ele>978</ele>
        <time>2014-02-22T13:44:15Z</time>
      </trkpt>
      <trkpt lat="45.60706" lon="6.10402">
        <ele>978</ele>
        <time>2014-02-22T13:44:18Z</time>
      </trkpt>
      <trkpt lat="45.60705" lon="6.10402">
        <ele>978</ele>
        <time>2014-02-22T13:44:21Z</time>
      </trkpt>
      <trkpt lat="45.60698" lon="6.10402">
        <ele>978</ele>
        <time>2014-02-22T13:44:25Z</time>
      </trkpt>
      <trkpt lat="45.60696" lon="6.10401">
        <ele>978</ele>
        <time>2014-02-22T13:44:30Z</time>
      </trkpt>
      <trkpt lat="45.60698" lon="6.10403">
        <ele>976</ele>
        <time>2014-02-22T13:44:35Z</time>
      </trkpt>
      <trkpt lat="45.60698" lon="6.10405">
        <ele>976</ele>
        <time>2014-02-22T13:44:37Z</time>
      </trkpt>
      <trkpt lat="45.60697" lon="6.10408">
        <ele>976</ele>
        <time>2014-02-22T13:44:40Z</time>
      </trkpt>
      <trkpt lat="45.60696" lon="6.10409">
        <ele>976</ele>
        <time>2014-02-22T13:44:42Z</time>
      </trkpt>
      <trkpt lat="45.60694" lon="6.1041">
        <ele>976</ele>
        <time>2014-02-22T13:44:44Z</time>
      </trkpt>
      <trkpt lat="45.60693" lon="6.10408">
        <ele>976</ele>
        <time>2014-02-22T13:44:48Z</time>
      </trkpt>
      <trkpt lat="45.60691" lon="6.10409">
        <ele>976</ele>
        <time>2014-02-22T13:44:50Z</time>
      </trkpt>
      <trkpt lat="45.60695" lon="6.10407">
        <ele>978</ele>
        <time>2014-02-22T13:44:53Z</time>
      </trkpt>
      <trkpt lat="45.60698" lon="6.10409">
        <ele>978</ele>
        <time>2014-02-22T13:44:55Z</time>
      </trkpt>
      <trkpt lat="45.60699" lon="6.10412">
        <ele>978</ele>
        <time>2014-02-22T13:44:57Z</time>
      </trkpt>
      <trkpt lat="45.60701" lon="6.10414">
        <ele>978</ele>
        <time>2014-02-22T13:44:59Z</time>
      </trkpt>
      <trkpt lat="45.60704" lon="6.10414">
        <ele>978</ele>
        <time>2014-02-22T13:45:02Z</time>
      </trkpt>
      <trkpt lat="45.60705" lon="6.10415">
        <ele>978</ele>
        <time>2014-02-22T13:45:04Z</time>
      </trkpt>
      <trkpt lat="45.60701" lon="6.10417">
        <ele>978</ele>
        <time>2014-02-22T13:45:06Z</time>
      </trkpt>
      <trkpt lat="45.60699" lon="6.10418">
        <ele>980</ele>
        <time>2014-02-22T13:45:08Z</time>
      </trkpt>
      <trkpt lat="45.60699" lon="6.10421">
        <ele>982</ele>
        <time>2014-02-22T13:45:10Z</time>
      </trkpt>
      <trkpt lat="45.60696" lon="6.10426">
        <ele>984</ele>
        <time>2014-02-22T13:45:13Z</time>
      </trkpt>
      <trkpt lat="45.60695" lon="6.10429">
        <ele>986</ele>
        <time>2014-02-22T13:45:15Z</time>
      </trkpt>
      <trkpt lat="45.60694" lon="6.1043">
        <ele>986</ele>
        <time>2014-02-22T13:45:18Z</time>
      </trkpt>
      <trkpt lat="45.60694" lon="6.10432">
        <ele>986</ele>
        <time>2014-02-22T13:45:22Z</time>
      </trkpt>
      <trkpt lat="45.60694" lon="6.10434">
        <ele>986</ele>
        <time>2014-02-22T13:45:24Z</time>
      </trkpt>
      <trkpt lat="45.60693" lon="6.10434">
        <ele>986</ele>
        <time>2014-02-22T13:45:27Z</time>
      </trkpt>
      <trkpt lat="45.6069" lon="6.10436">
        <ele>986</ele>
        <time>2014-02-22T13:45:31Z</time>
      </trkpt>
      <trkpt lat="45.60688" lon="6.10437">
        <ele>986</ele>
        <time>2014-02-22T13:45:34Z</time>
      </trkpt>
      <trkpt lat="45.60691" lon="6.10441">
        <ele>986</ele>
        <time>2014-02-22T13:45:38Z</time>
      </trkpt>
      <trkpt lat="45.6069" lon="6.10443">
        <ele>986</ele>
        <time>2014-02-22T13:45:41Z</time>
      </trkpt>
      <trkpt lat="45.60688" lon="6.10452">
        <ele>988</ele>
        <time>2014-02-22T13:45:46Z</time>
      </trkpt>
      <trkpt lat="45.60685" lon="6.10452">
        <ele>988</ele>
        <time>2014-02-22T13:45:51Z</time>
      </trkpt>
      <trkpt lat="45.60685" lon="6.10449">
        <ele>988</ele>
        <time>2014-02-22T13:45:54Z</time>
      </trkpt>
      <trkpt lat="45.60686" lon="6.10447">
        <ele>988</ele>
        <time>2014-02-22T13:45:59Z</time>
      </trkpt>
      <trkpt lat="45.60686" lon="6.10445">
        <ele>988</ele>
        <time>2014-02-22T13:46:04Z</time>
      </trkpt>
      <trkpt lat="45.60683" lon="6.10441">
        <ele>988</ele>
        <time>2014-02-22T13:46:07Z</time>
      </trkpt>
      <trkpt lat="45.60682" lon="6.10442">
        <ele>988</ele>
        <time>2014-02-22T13:46:09Z</time>
      </trkpt>
      <trkpt lat="45.60682" lon="6.10444">
        <ele>988</ele>
        <time>2014-02-22T13:46:11Z</time>
      </trkpt>
      <trkpt lat="45.6068" lon="6.10445">
        <ele>990</ele>
        <time>2014-02-22T13:46:13Z</time>
      </trkpt>
      <trkpt lat="45.60677" lon="6.10444">
        <ele>992</ele>
        <time>2014-02-22T13:46:15Z</time>
      </trkpt>
      <trkpt lat="45.60678" lon="6.10445">
        <ele>994</ele>
        <time>2014-02-22T13:46:18Z</time>
      </trkpt>
      <trkpt lat="45.60676" lon="6.10447">
        <ele>995</ele>
        <time>2014-02-22T13:46:20Z</time>
      </trkpt>
      <trkpt lat="45.60676" lon="6.1045">
        <ele>996</ele>
        <time>2014-02-22T13:46:22Z</time>
      </trkpt>
      <trkpt lat="45.60675" lon="6.10454">
        <ele>999</ele>
        <time>2014-02-22T13:46:29Z</time>
      </trkpt>
      <trkpt lat="45.60675" lon="6.10456">
        <ele>999</ele>
        <time>2014-02-22T13:46:31Z</time>
      </trkpt>
      <trkpt lat="45.60675" lon="6.10458">
        <ele>999</ele>
        <time>2014-02-22T13:46:33Z</time>
      </trkpt>
      <trkpt lat="45.60675" lon="6.1046">
        <ele>999</ele>
        <time>2014-02-22T13:46:35Z</time>
      </trkpt>
      <trkpt lat="45.60674" lon="6.10463">
        <ele>999</ele>
        <time>2014-02-22T13:46:37Z</time>
      </trkpt>
      <trkpt lat="45.60674" lon="6.10466">
        <ele>1001</ele>
        <time>2014-02-22T13:46:42Z</time>
      </trkpt>
      <trkpt lat="45.60672" lon="6.10466">
        <ele>1001</ele>
        <time>2014-02-22T13:46:45Z</time>
      </trkpt>
      <trkpt lat="45.6067" lon="6.10464">
        <ele>1001</ele>
        <time>2014-02-22T13:46:47Z</time>
      </trkpt>
      <trkpt lat="45.60667" lon="6.10463">
        <ele>1001</ele>
        <time>2014-02-22T13:46:49Z</time>
      </trkpt>
      <trkpt lat="45.60666" lon="6.10464">
        <ele>1001</ele>
        <time>2014-02-22T13:46:52Z</time>
      </trkpt>
      <trkpt lat="45.60665" lon="6.10464">
        <ele>1001</ele>
        <time>2014-02-22T13:46:54Z</time>
      </trkpt>
      <trkpt lat="45.60664" lon="6.10463">
        <ele>1001</ele>
        <time>2014-02-22T13:46:57Z</time>
      </trkpt>
      <trkpt lat="45.60658" lon="6.10469">
        <ele>1001</ele>
        <time>2014-02-22T13:47:00Z</time>
      </trkpt>
      <trkpt lat="45.60657" lon="6.10469">
        <ele>1001</ele>
        <time>2014-02-22T13:47:02Z</time>
      </trkpt>
      <trkpt lat="45.60656" lon="6.10471">
        <ele>1000</ele>
        <time>2014-02-22T13:47:04Z</time>
      </trkpt>
      <trkpt lat="45.60655" lon="6.10472">
        <ele>1000</ele>
        <time>2014-02-22T13:47:07Z</time>
      </trkpt>
      <trkpt lat="45.60653" lon="6.10474">
        <ele>1000</ele>
        <time>2014-02-22T13:47:10Z</time>
      </trkpt>
      <trkpt lat="45.60651" lon="6.10479">
        <ele>1000</ele>
        <time>2014-02-22T13:47:12Z</time>
      </trkpt>
      <trkpt lat="45.60649" lon="6.10479">
        <ele>1000</ele>
        <time>2014-02-22T13:47:14Z</time>
      </trkpt>
      <trkpt lat="45.60646" lon="6.10481">
        <ele>1001</ele>
        <time>2014-02-22T13:47:18Z</time>
      </trkpt>
      <trkpt lat="45.60644" lon="6.10485">
        <ele>1002</ele>
        <time>2014-02-22T13:47:20Z</time>
      </trkpt>
      <trkpt lat="45.60644" lon="6.10487">
        <ele>1004</ele>
        <time>2014-02-22T13:47:22Z</time>
      </trkpt>
      <trkpt lat="45.60644" lon="6.10489">
        <ele>1004</ele>
        <time>2014-02-22T13:47:25Z</time>
      </trkpt>
      <trkpt lat="45.60641" lon="6.1049">
        <ele>1004</ele>
        <time>2014-02-22T13:47:27Z</time>
      </trkpt>
      <trkpt lat="45.60642" lon="6.10488">
        <ele>1004</ele>
        <time>2014-02-22T13:47:32Z</time>
      </trkpt>
      <trkpt lat="45.60642" lon="6.10483">
        <ele>1002</ele>
        <time>2014-02-22T13:47:34Z</time>
      </trkpt>
      <trkpt lat="45.6064" lon="6.10482">
        <ele>1000</ele>
        <time>2014-02-22T13:47:36Z</time>
      </trkpt>
      <trkpt lat="45.60638" lon="6.1048">
        <ele>997</ele>
        <time>2014-02-22T13:47:39Z</time>
      </trkpt>
      <trkpt lat="45.60637" lon="6.10483">
        <ele>995</ele>
        <time>2014-02-22T13:47:41Z</time>
      </trkpt>
      <trkpt lat="45.60635" lon="6.10486">
        <ele>994</ele>
        <time>2014-02-22T13:47:43Z</time>
      </trkpt>
      <trkpt lat="45.60632" lon="6.10491">
        <ele>994</ele>
        <time>2014-02-22T13:47:45Z</time>
      </trkpt>
      <trkpt lat="45.6063" lon="6.10493">
        <ele>994</ele>
        <time>2014-02-22T13:47:47Z</time>
      </trkpt>
      <trkpt lat="45.60629" lon="6.10494">
        <ele>994</ele>
        <time>2014-02-22T13:47:49Z</time>
      </trkpt>
      <trkpt lat="45.60629" lon="6.10496">
        <ele>994</ele>
        <time>2014-02-22T13:47:51Z</time>
      </trkpt>
      <trkpt lat="45.6063" lon="6.10498">
        <ele>994</ele>
        <time>2014-02-22T13:47:53Z</time>
      </trkpt>
      <trkpt lat="45.6063" lon="6.105">
        <ele>994</ele>
        <time>2014-02-22T13:47:55Z</time>
      </trkpt>
      <trkpt lat="45.60631" lon="6.10501">
        <ele>995</ele>
        <time>2014-02-22T13:47:57Z</time>
      </trkpt>
      <trkpt lat="45.60633" lon="6.10499">
        <ele>996</ele>
        <time>2014-02-22T13:48:00Z</time>
      </trkpt>
      <trkpt lat="45.60632" lon="6.10501">
        <ele>996</ele>
        <time>2014-02-22T13:48:03Z</time>
      </trkpt>
      <trkpt lat="45.6063" lon="6.10503">
        <ele>997</ele>
        <time>2014-02-22T13:48:06Z</time>
      </trkpt>
      <trkpt lat="45.60629" lon="6.10504">
        <ele>998</ele>
        <time>2014-02-22T13:48:08Z</time>
      </trkpt>
      <trkpt lat="45.60628" lon="6.10505">
        <ele>1000</ele>
        <time>2014-02-22T13:48:10Z</time>
      </trkpt>
      <trkpt lat="45.60625" lon="6.10505">
        <ele>1001</ele>
        <time>2014-02-22T13:48:13Z</time>
      </trkpt>
      <trkpt lat="45.60624" lon="6.10505">
        <ele>1001</ele>
        <time>2014-02-22T13:48:15Z</time>
      </trkpt>
      <trkpt lat="45.60623" lon="6.10504">
        <ele>1001</ele>
        <time>2014-02-22T13:48:18Z</time>
      </trkpt>
      <trkpt lat="45.60622" lon="6.10506">
        <ele>1001</ele>
        <time>2014-02-22T13:48:20Z</time>
      </trkpt>
      <trkpt lat="45.60621" lon="6.10507">
        <ele>1001</ele>
        <time>2014-02-22T13:48:22Z</time>
      </trkpt>
      <trkpt lat="45.6062" lon="6.1051">
        <ele>1001</ele>
        <time>2014-02-22T13:48:24Z</time>
      </trkpt>
      <trkpt lat="45.6062" lon="6.10511">
        <ele>1001</ele>
        <time>2014-02-22T13:48:26Z</time>
      </trkpt>
      <trkpt lat="45.6062" lon="6.10513">
        <ele>1002</ele>
        <time>2014-02-22T13:48:29Z</time>
      </trkpt>
      <trkpt lat="45.6062" lon="6.1051">
        <ele>1014</ele>
        <time>2014-02-22T13:48:35Z</time>
      </trkpt>
      <trkpt lat="45.60621" lon="6.10515">
        <ele>1016</ele>
        <time>2014-02-22T13:48:39Z</time>
      </trkpt>
      <trkpt lat="45.6062" lon="6.10519">
        <ele>1017</ele>
        <time>2014-02-22T13:48:41Z</time>
      </trkpt>
      <trkpt lat="45.60623" lon="6.10522">
        <ele>1018</ele>
        <time>2014-02-22T13:48:43Z</time>
      </trkpt>
      <trkpt lat="45.60623" lon="6.10522">
        <ele>1020</ele>
        <time>2014-02-22T13:48:46Z</time>
      </trkpt>
      <trkpt lat="45.6062" lon="6.10524">
        <ele>1021</ele>
        <time>2014-02-22T13:48:49Z</time>
      </trkpt>
      <trkpt lat="45.60619" lon="6.10527">
        <ele>1021</ele>
        <time>2014-02-22T13:48:51Z</time>
      </trkpt>
      <trkpt lat="45.60619" lon="6.10529">
        <ele>1021</ele>
        <time>2014-02-22T13:48:54Z</time>
      </trkpt>
      <trkpt lat="45.60619" lon="6.10532">
        <ele>1021</ele>
        <time>2014-02-22T13:48:57Z</time>
      </trkpt>
      <trkpt lat="45.60617" lon="6.10536">
        <ele>1021</ele>
        <time>2014-02-22T13:48:59Z</time>
      </trkpt>
      <trkpt lat="45.60615" lon="6.1054">
        <ele>1021</ele>
        <time>2014-02-22T13:49:01Z</time>
      </trkpt>
      <trkpt lat="45.60613" lon="6.1054">
        <ele>1021</ele>
        <time>2014-02-22T13:49:03Z</time>
      </trkpt>
      <trkpt lat="45.60612" lon="6.10537">
        <ele>1021</ele>
        <time>2014-02-22T13:49:07Z</time>
      </trkpt>
      <trkpt lat="45.60611" lon="6.10533">
        <ele>1020</ele>
        <time>2014-02-22T13:49:11Z</time>
      </trkpt>
      <trkpt lat="45.60611" lon="6.10532">
        <ele>1020</ele>
        <time>2014-02-22T13:49:13Z</time>
      </trkpt>
      <trkpt lat="45.60608" lon="6.1053">
        <ele>1020</ele>
        <time>2014-02-22T13:49:15Z</time>
      </trkpt>
      <trkpt lat="45.60606" lon="6.10529">
        <ele>1021</ele>
        <time>2014-02-22T13:49:17Z</time>
      </trkpt>
      <trkpt lat="45.60602" lon="6.1053">
        <ele>1022</ele>
        <time>2014-02-22T13:49:20Z</time>
      </trkpt>
      <trkpt lat="45.60602" lon="6.10524">
        <ele>1024</ele>
        <time>2014-02-22T13:49:22Z</time>
      </trkpt>
      <trkpt lat="45.60604" lon="6.10519">
        <ele>1024</ele>
        <time>2014-02-22T13:49:24Z</time>
      </trkpt>
      <trkpt lat="45.60602" lon="6.10515">
        <ele>1023</ele>
        <time>2014-02-22T13:49:29Z</time>
      </trkpt>
      <trkpt lat="45.60602" lon="6.10511">
        <ele>1021</ele>
        <time>2014-02-22T13:49:31Z</time>
      </trkpt>
      <trkpt lat="45.60605" lon="6.1051">
        <ele>1021</ele>
        <time>2014-02-22T13:49:33Z</time>
      </trkpt>
      <trkpt lat="45.60604" lon="6.10511">
        <ele>1021</ele>
        <time>2014-02-22T13:49:36Z</time>
      </trkpt>
      <trkpt lat="45.60606" lon="6.10506">
        <ele>1020</ele>
        <time>2014-02-22T13:49:38Z</time>
      </trkpt>
      <trkpt lat="45.60608" lon="6.10504">
        <ele>1020</ele>
        <time>2014-02-22T13:49:40Z</time>
      </trkpt>
      <trkpt lat="45.60607" lon="6.10505">
        <ele>1019</ele>
        <time>2014-02-22T13:49:44Z</time>
      </trkpt>
      <trkpt lat="45.60606" lon="6.10504">
        <ele>1018</ele>
        <time>2014-02-22T13:49:46Z</time>
      </trkpt>
      <trkpt lat="45.60606" lon="6.10502">
        <ele>1017</ele>
        <time>2014-02-22T13:49:48Z</time>
      </trkpt>
      <trkpt lat="45.60605" lon="6.10498">
        <ele>1016</ele>
        <time>2014-02-22T13:49:50Z</time>
      </trkpt>
      <trkpt lat="45.60606" lon="6.10495">
        <ele>1016</ele>
        <time>2014-02-22T13:49:52Z</time>
      </trkpt>
      <trkpt lat="45.60607" lon="6.10493">
        <ele>1016</ele>
        <time>2014-02-22T13:49:54Z</time>
      </trkpt>
      <trkpt lat="45.60609" lon="6.10492">
        <ele>1016</ele>
        <time>2014-02-22T13:49:56Z</time>
      </trkpt>
      <trkpt lat="45.6061" lon="6.1049">
        <ele>1017</ele>
        <time>2014-02-22T13:49:58Z</time>
      </trkpt>
      <trkpt lat="45.60611" lon="6.1049">
        <ele>1019</ele>
        <time>2014-02-22T13:50:01Z</time>
      </trkpt>
      <trkpt lat="45.60606" lon="6.10484">
        <ele>1019</ele>
        <time>2014-02-22T13:50:04Z</time>
      </trkpt>
      <trkpt lat="45.60605" lon="6.10483">
        <ele>1019</ele>
        <time>2014-02-22T13:50:07Z</time>
      </trkpt>
      <trkpt lat="45.60606" lon="6.10482">
        <ele>1019</ele>
        <time>2014-02-22T13:50:09Z</time>
      </trkpt>
      <trkpt lat="45.60607" lon="6.10481">
        <ele>1019</ele>
        <time>2014-02-22T13:50:11Z</time>
      </trkpt>
      <trkpt lat="45.6061" lon="6.10481">
        <ele>1019</ele>
        <time>2014-02-22T13:50:14Z</time>
      </trkpt>
      <trkpt lat="45.60609" lon="6.10478">
        <ele>1019</ele>
        <time>2014-02-22T13:50:16Z</time>
      </trkpt>
      <trkpt lat="45.60608" lon="6.10476">
        <ele>1020</ele>
        <time>2014-02-22T13:50:18Z</time>
      </trkpt>
      <trkpt lat="45.60606" lon="6.10473">
        <ele>1020</ele>
        <time>2014-02-22T13:50:21Z</time>
      </trkpt>
      <trkpt lat="45.60606" lon="6.10471">
        <ele>1021</ele>
        <time>2014-02-22T13:50:23Z</time>
      </trkpt>
      <trkpt lat="45.60605" lon="6.10469">
        <ele>1022</ele>
        <time>2014-02-22T13:50:25Z</time>
      </trkpt>
      <trkpt lat="45.60604" lon="6.10464">
        <ele>1022</ele>
        <time>2014-02-22T13:50:28Z</time>
      </trkpt>
      <trkpt lat="45.60606" lon="6.10462">
        <ele>1022</ele>
        <time>2014-02-22T13:50:30Z</time>
      </trkpt>
      <trkpt lat="45.60606" lon="6.10459">
        <ele>1022</ele>
        <time>2014-02-22T13:50:32Z</time>
      </trkpt>
      <trkpt lat="45.60608" lon="6.10455">
        <ele>1022</ele>
        <time>2014-02-22T13:50:34Z</time>
      </trkpt>
      <trkpt lat="45.60605" lon="6.10451">
        <ele>1022</ele>
        <time>2014-02-22T13:50:36Z</time>
      </trkpt>
      <trkpt lat="45.60604" lon="6.10452">
        <ele>1022</ele>
        <time>2014-02-22T13:50:41Z</time>
      </trkpt>
      <trkpt lat="45.60602" lon="6.10453">
        <ele>1023</ele>
        <time>2014-02-22T13:50:43Z</time>
      </trkpt>
      <trkpt lat="45.60599" lon="6.10452">
        <ele>1025</ele>
        <time>2014-02-22T13:50:46Z</time>
      </trkpt>
      <trkpt lat="45.606" lon="6.1045">
        <ele>1026</ele>
        <time>2014-02-22T13:50:48Z</time>
      </trkpt>
      <trkpt lat="45.60601" lon="6.10449">
        <ele>1026</ele>
        <time>2014-02-22T13:50:50Z</time>
      </trkpt>
      <trkpt lat="45.606" lon="6.1045">
        <ele>1027</ele>
        <time>2014-02-22T13:50:53Z</time>
      </trkpt>
      <trkpt lat="45.606" lon="6.10449">
        <ele>1030</ele>
        <time>2014-02-22T13:51:01Z</time>
      </trkpt>
      <trkpt lat="45.60596" lon="6.10453">
        <ele>1033</ele>
        <time>2014-02-22T13:51:04Z</time>
      </trkpt>
      <trkpt lat="45.60595" lon="6.10453">
        <ele>1033</ele>
        <time>2014-02-22T13:51:06Z</time>
      </trkpt>
      <trkpt lat="45.60593" lon="6.10453">
        <ele>1033</ele>
        <time>2014-02-22T13:51:09Z</time>
      </trkpt>
      <trkpt lat="45.60593" lon="6.10451">
        <ele>1033</ele>
        <time>2014-02-22T13:51:12Z</time>
      </trkpt>
      <trkpt lat="45.60591" lon="6.10462">
        <ele>1033</ele>
        <time>2014-02-22T13:51:15Z</time>
      </trkpt>
      <trkpt lat="45.60592" lon="6.10465">
        <ele>1033</ele>
        <time>2014-02-22T13:51:17Z</time>
      </trkpt>
      <trkpt lat="45.60592" lon="6.10467">
        <ele>1034</ele>
        <time>2014-02-22T13:51:19Z</time>
      </trkpt>
      <trkpt lat="45.60593" lon="6.1047">
        <ele>1034</ele>
        <time>2014-02-22T13:51:21Z</time>
      </trkpt>
      <trkpt lat="45.60591" lon="6.10473">
        <ele>1034</ele>
        <time>2014-02-22T13:51:24Z</time>
      </trkpt>
      <trkpt lat="45.6059" lon="6.10472">
        <ele>1034</ele>
        <time>2014-02-22T13:51:29Z</time>
      </trkpt>
      <trkpt lat="45.60588" lon="6.10473">
        <ele>1034</ele>
        <time>2014-02-22T13:51:31Z</time>
      </trkpt>
      <trkpt lat="45.60587" lon="6.10473">
        <ele>1034</ele>
        <time>2014-02-22T13:51:33Z</time>
      </trkpt>
      <trkpt lat="45.60584" lon="6.10471">
        <ele>1034</ele>
        <time>2014-02-22T13:51:35Z</time>
      </trkpt>
      <trkpt lat="45.60585" lon="6.10469">
        <ele>1034</ele>
        <time>2014-02-22T13:51:40Z</time>
      </trkpt>
      <trkpt lat="45.60585" lon="6.10464">
        <ele>1035</ele>
        <time>2014-02-22T13:51:43Z</time>
      </trkpt>
      <trkpt lat="45.60584" lon="6.10462">
        <ele>1036</ele>
        <time>2014-02-22T13:51:45Z</time>
      </trkpt>
      <trkpt lat="45.60585" lon="6.10459">
        <ele>1037</ele>
        <time>2014-02-22T13:51:47Z</time>
      </trkpt>
      <trkpt lat="45.60583" lon="6.10456">
        <ele>1040</ele>
        <time>2014-02-22T13:51:50Z</time>
      </trkpt>
      <trkpt lat="45.60582" lon="6.10457">
        <ele>1041</ele>
        <time>2014-02-22T13:51:52Z</time>
      </trkpt>
      <trkpt lat="45.60581" lon="6.10455">
        <ele>1042</ele>
        <time>2014-02-22T13:51:55Z</time>
      </trkpt>
      <trkpt lat="45.6058" lon="6.10454">
        <ele>1042</ele>
        <time>2014-02-22T13:51:58Z</time>
      </trkpt>
      <trkpt lat="45.60579" lon="6.10451">
        <ele>1042</ele>
        <time>2014-02-22T13:52:00Z</time>
      </trkpt>
      <trkpt lat="45.60579" lon="6.10446">
        <ele>1042</ele>
        <time>2014-02-22T13:52:02Z</time>
      </trkpt>
      <trkpt lat="45.6058" lon="6.10441">
        <ele>1039</ele>
        <time>2014-02-22T13:52:06Z</time>
      </trkpt>
      <trkpt lat="45.60579" lon="6.10443">
        <ele>1038</ele>
        <time>2014-02-22T13:52:09Z</time>
      </trkpt>
      <trkpt lat="45.60577" lon="6.10443">
        <ele>1038</ele>
        <time>2014-02-22T13:52:11Z</time>
      </trkpt>
      <trkpt lat="45.60575" lon="6.10443">
        <ele>1038</ele>
        <time>2014-02-22T13:52:13Z</time>
      </trkpt>
      <trkpt lat="45.60576" lon="6.10442">
        <ele>1038</ele>
        <time>2014-02-22T13:52:15Z</time>
      </trkpt>
      <trkpt lat="45.60576" lon="6.1044">
        <ele>1038</ele>
        <time>2014-02-22T13:52:17Z</time>
      </trkpt>
      <trkpt lat="45.60576" lon="6.10438">
        <ele>1038</ele>
        <time>2014-02-22T13:52:19Z</time>
      </trkpt>
      <trkpt lat="45.60575" lon="6.10438">
        <ele>1035</ele>
        <time>2014-02-22T13:52:22Z</time>
      </trkpt>
      <trkpt lat="45.60571" lon="6.10437">
        <ele>1035</ele>
        <time>2014-02-22T13:52:25Z</time>
      </trkpt>
      <trkpt lat="45.6057" lon="6.10436">
        <ele>1035</ele>
        <time>2014-02-22T13:52:29Z</time>
      </trkpt>
      <trkpt lat="45.60569" lon="6.10435">
        <ele>1035</ele>
        <time>2014-02-22T13:52:32Z</time>
      </trkpt>
      <trkpt lat="45.6057" lon="6.10433">
        <ele>1035</ele>
        <time>2014-02-22T13:52:35Z</time>
      </trkpt>
      <trkpt lat="45.6057" lon="6.10432">
        <ele>1035</ele>
        <time>2014-02-22T13:52:37Z</time>
      </trkpt>
      <trkpt lat="45.60569" lon="6.1043">
        <ele>1035</ele>
        <time>2014-02-22T13:52:39Z</time>
      </trkpt>
      <trkpt lat="45.60568" lon="6.10431">
        <ele>1035</ele>
        <time>2014-02-22T13:52:41Z</time>
      </trkpt>
      <trkpt lat="45.60565" lon="6.10434">
        <ele>1036</ele>
        <time>2014-02-22T13:52:44Z</time>
      </trkpt>
      <trkpt lat="45.60564" lon="6.10436">
        <ele>1037</ele>
        <time>2014-02-22T13:52:46Z</time>
      </trkpt>
      <trkpt lat="45.60563" lon="6.10438">
        <ele>1037</ele>
        <time>2014-02-22T13:52:48Z</time>
      </trkpt>
      <trkpt lat="45.60563" lon="6.1044">
        <ele>1038</ele>
        <time>2014-02-22T13:52:50Z</time>
      </trkpt>
      <trkpt lat="45.60564" lon="6.10442">
        <ele>1039</ele>
        <time>2014-02-22T13:52:53Z</time>
      </trkpt>
      <trkpt lat="45.60565" lon="6.10446">
        <ele>1039</ele>
        <time>2014-02-22T13:52:56Z</time>
      </trkpt>
      <trkpt lat="45.60564" lon="6.1045">
        <ele>1039</ele>
        <time>2014-02-22T13:52:58Z</time>
      </trkpt>
      <trkpt lat="45.60564" lon="6.10452">
        <ele>1039</ele>
        <time>2014-02-22T13:53:00Z</time>
      </trkpt>
      <trkpt lat="45.60561" lon="6.10455">
        <ele>1040</ele>
        <time>2014-02-22T13:53:02Z</time>
      </trkpt>
      <trkpt lat="45.6056" lon="6.10455">
        <ele>1041</ele>
        <time>2014-02-22T13:53:04Z</time>
      </trkpt>
      <trkpt lat="45.60558" lon="6.10456">
        <ele>1042</ele>
        <time>2014-02-22T13:53:06Z</time>
      </trkpt>
      <trkpt lat="45.60556" lon="6.10457">
        <ele>1042</ele>
        <time>2014-02-22T13:53:08Z</time>
      </trkpt>
      <trkpt lat="45.60553" lon="6.10456">
        <ele>1042</ele>
        <time>2014-02-22T13:53:11Z</time>
      </trkpt>
      <trkpt lat="45.6056" lon="6.10455">
        <ele>1047</ele>
        <time>2014-02-22T13:53:18Z</time>
      </trkpt>
      <trkpt lat="45.60559" lon="6.10457">
        <ele>1047</ele>
        <time>2014-02-22T13:53:20Z</time>
      </trkpt>
      <trkpt lat="45.6056" lon="6.1046">
        <ele>1047</ele>
        <time>2014-02-22T13:53:22Z</time>
      </trkpt>
      <trkpt lat="45.6056" lon="6.10465">
        <ele>1047</ele>
        <time>2014-02-22T13:53:25Z</time>
      </trkpt>
      <trkpt lat="45.60559" lon="6.10467">
        <ele>1047</ele>
        <time>2014-02-22T13:53:27Z</time>
      </trkpt>
      <trkpt lat="45.60557" lon="6.10468">
        <ele>1047</ele>
        <time>2014-02-22T13:53:29Z</time>
      </trkpt>
      <trkpt lat="45.60555" lon="6.1047">
        <ele>1047</ele>
        <time>2014-02-22T13:53:33Z</time>
      </trkpt>
      <trkpt lat="45.60552" lon="6.10473">
        <ele>1047</ele>
        <time>2014-02-22T13:53:35Z</time>
      </trkpt>
      <trkpt lat="45.60551" lon="6.10472">
        <ele>1047</ele>
        <time>2014-02-22T13:53:37Z</time>
      </trkpt>
      <trkpt lat="45.6055" lon="6.1047">
        <ele>1047</ele>
        <time>2014-02-22T13:53:40Z</time>
      </trkpt>
      <trkpt lat="45.60549" lon="6.10469">
        <ele>1047</ele>
        <time>2014-02-22T13:53:42Z</time>
      </trkpt>
      <trkpt lat="45.60548" lon="6.10467">
        <ele>1047</ele>
        <time>2014-02-22T13:53:45Z</time>
      </trkpt>
      <trkpt lat="45.60547" lon="6.10465">
        <ele>1046</ele>
        <time>2014-02-22T13:53:47Z</time>
      </trkpt>
      <trkpt lat="45.60545" lon="6.10465">
        <ele>1044</ele>
        <time>2014-02-22T13:53:51Z</time>
      </trkpt>
      <trkpt lat="45.60543" lon="6.10467">
        <ele>1043</ele>
        <time>2014-02-22T13:53:55Z</time>
      </trkpt>
      <trkpt lat="45.60542" lon="6.10468">
        <ele>1043</ele>
        <time>2014-02-22T13:53:58Z</time>
      </trkpt>
      <trkpt lat="45.60541" lon="6.10469">
        <ele>1043</ele>
        <time>2014-02-22T13:54:01Z</time>
      </trkpt>
      <trkpt lat="45.6054" lon="6.1047">
        <ele>1043</ele>
        <time>2014-02-22T13:54:05Z</time>
      </trkpt>
      <trkpt lat="45.6054" lon="6.10471">
        <ele>1043</ele>
        <time>2014-02-22T13:54:08Z</time>
      </trkpt>
      <trkpt lat="45.60537" lon="6.10474">
        <ele>1043</ele>
        <time>2014-02-22T13:54:12Z</time>
      </trkpt>
      <trkpt lat="45.60531" lon="6.1048">
        <ele>1048</ele>
        <time>2014-02-22T13:54:19Z</time>
      </trkpt>
      <trkpt lat="45.60532" lon="6.10481">
        <ele>1049</ele>
        <time>2014-02-22T13:54:22Z</time>
      </trkpt>
      <trkpt lat="45.60532" lon="6.10486">
        <ele>1049</ele>
        <time>2014-02-22T13:54:25Z</time>
      </trkpt>
      <trkpt lat="45.60531" lon="6.10487">
        <ele>1050</ele>
        <time>2014-02-22T13:54:28Z</time>
      </trkpt>
      <trkpt lat="45.60529" lon="6.10489">
        <ele>1051</ele>
        <time>2014-02-22T13:54:30Z</time>
      </trkpt>
      <trkpt lat="45.60526" lon="6.10491">
        <ele>1052</ele>
        <time>2014-02-22T13:54:32Z</time>
      </trkpt>
      <trkpt lat="45.60525" lon="6.10492">
        <ele>1053</ele>
        <time>2014-02-22T13:54:34Z</time>
      </trkpt>
      <trkpt lat="45.60523" lon="6.10493">
        <ele>1055</ele>
        <time>2014-02-22T13:54:37Z</time>
      </trkpt>
      <trkpt lat="45.60521" lon="6.10497">
        <ele>1056</ele>
        <time>2014-02-22T13:54:44Z</time>
      </trkpt>
      <trkpt lat="45.60521" lon="6.10499">
        <ele>1056</ele>
        <time>2014-02-22T13:54:47Z</time>
      </trkpt>
      <trkpt lat="45.60519" lon="6.105">
        <ele>1056</ele>
        <time>2014-02-22T13:54:49Z</time>
      </trkpt>
      <trkpt lat="45.60517" lon="6.10501">
        <ele>1057</ele>
        <time>2014-02-22T13:54:52Z</time>
      </trkpt>
      <trkpt lat="45.60516" lon="6.10503">
        <ele>1057</ele>
        <time>2014-02-22T13:54:54Z</time>
      </trkpt>
      <trkpt lat="45.60514" lon="6.10503">
        <ele>1058</ele>
        <time>2014-02-22T13:54:56Z</time>
      </trkpt>
      <trkpt lat="45.60513" lon="6.10503">
        <ele>1058</ele>
        <time>2014-02-22T13:54:59Z</time>
      </trkpt>
      <trkpt lat="45.60515" lon="6.10507">
        <ele>1058</ele>
        <time>2014-02-22T13:55:02Z</time>
      </trkpt>
      <trkpt lat="45.60513" lon="6.1051">
        <ele>1058</ele>
        <time>2014-02-22T13:55:05Z</time>
      </trkpt>
      <trkpt lat="45.60511" lon="6.10513">
        <ele>1058</ele>
        <time>2014-02-22T13:55:08Z</time>
      </trkpt>
      <trkpt lat="45.6051" lon="6.10515">
        <ele>1058</ele>
        <time>2014-02-22T13:55:10Z</time>
      </trkpt>
      <trkpt lat="45.60509" lon="6.10518">
        <ele>1058</ele>
        <time>2014-02-22T13:55:12Z</time>
      </trkpt>
      <trkpt lat="45.60507" lon="6.10518">
        <ele>1058</ele>
        <time>2014-02-22T13:55:15Z</time>
      </trkpt>
      <trkpt lat="45.60506" lon="6.10515">
        <ele>1058</ele>
        <time>2014-02-22T13:55:18Z</time>
      </trkpt>
      <trkpt lat="45.60506" lon="6.10511">
        <ele>1058</ele>
        <time>2014-02-22T13:55:20Z</time>
      </trkpt>
      <trkpt lat="45.60502" lon="6.10512">
        <ele>1058</ele>
        <time>2014-02-22T13:55:28Z</time>
      </trkpt>
      <trkpt lat="45.60501" lon="6.10514">
        <ele>1058</ele>
        <time>2014-02-22T13:55:30Z</time>
      </trkpt>
      <trkpt lat="45.60501" lon="6.10516">
        <ele>1058</ele>
        <time>2014-02-22T13:55:32Z</time>
      </trkpt>
      <trkpt lat="45.60501" lon="6.10518">
        <ele>1058</ele>
        <time>2014-02-22T13:55:34Z</time>
      </trkpt>
      <trkpt lat="45.60498" lon="6.10521">
        <ele>1058</ele>
        <time>2014-02-22T13:55:37Z</time>
      </trkpt>
      <trkpt lat="45.60496" lon="6.10523">
        <ele>1058</ele>
        <time>2014-02-22T13:55:39Z</time>
      </trkpt>
      <trkpt lat="45.60495" lon="6.10525">
        <ele>1058</ele>
        <time>2014-02-22T13:55:42Z</time>
      </trkpt>
      <trkpt lat="45.60492" lon="6.10528">
        <ele>1058</ele>
        <time>2014-02-22T13:55:45Z</time>
      </trkpt>
      <trkpt lat="45.60491" lon="6.10531">
        <ele>1058</ele>
        <time>2014-02-22T13:55:47Z</time>
      </trkpt>
      <trkpt lat="45.60491" lon="6.10533">
        <ele>1058</ele>
        <time>2014-02-22T13:55:49Z</time>
      </trkpt>
      <trkpt lat="45.6049" lon="6.10535">
        <ele>1058</ele>
        <time>2014-02-22T13:55:51Z</time>
      </trkpt>
      <trkpt lat="45.6049" lon="6.10542">
        <ele>1058</ele>
        <time>2014-02-22T13:55:54Z</time>
      </trkpt>
      <trkpt lat="45.60488" lon="6.10546">
        <ele>1058</ele>
        <time>2014-02-22T13:55:56Z</time>
      </trkpt>
      <trkpt lat="45.60487" lon="6.10548">
        <ele>1058</ele>
        <time>2014-02-22T13:55:59Z</time>
      </trkpt>
      <trkpt lat="45.60486" lon="6.10548">
        <ele>1058</ele>
        <time>2014-02-22T13:56:02Z</time>
      </trkpt>
      <trkpt lat="45.60485" lon="6.10546">
        <ele>1058</ele>
        <time>2014-02-22T13:56:05Z</time>
      </trkpt>
      <trkpt lat="45.60481" lon="6.10552">
        <ele>1058</ele>
        <time>2014-02-22T13:56:16Z</time>
      </trkpt>
      <trkpt lat="45.60479" lon="6.10552">
        <ele>1058</ele>
        <time>2014-02-22T13:56:19Z</time>
      </trkpt>
      <trkpt lat="45.60476" lon="6.10553">
        <ele>1060</ele>
        <time>2014-02-22T13:56:23Z</time>
      </trkpt>
      <trkpt lat="45.60473" lon="6.10552">
        <ele>1063</ele>
        <time>2014-02-22T13:56:26Z</time>
      </trkpt>
      <trkpt lat="45.60475" lon="6.10553">
        <ele>1065</ele>
        <time>2014-02-22T13:56:28Z</time>
      </trkpt>
      <trkpt lat="45.60482" lon="6.10559">
        <ele>1064</ele>
        <time>2014-02-22T13:56:32Z</time>
      </trkpt>
      <trkpt lat="45.60482" lon="6.1056">
        <ele>1063</ele>
        <time>2014-02-22T13:56:34Z</time>
      </trkpt>
    </trkseg>
  </trk>
</gpx>